Time;durP1;ratioP1;P1;durP2;ratioP2;P2;SDS_P1;SDS_P2;PMS_P1;PMS_P2;Temp;Humidity;BMP_temperature;BMP_pressure;BME280_temperature;BME280_humidity;BME280_pressure;Samples;Min_cycle;Max_cycle;Signal;HPM_P1;HPM_P2
2023/04/07 00:01:11;;;;;;;1.67;1.57;;;22.40;45.70;;;;;;5030876;28;20428;-76
2023/04/07 00:03:40;;;;;;;1.80;1.70;;;22.40;45.70;;;;;;5021428;28;20900;-76
2023/04/07 00:06:08;;;;;;;1.73;1.63;;;22.40;45.70;;;;;;5011629;28;20444;-76
2023/04/07 00:08:36;;;;;;;1.43;1.30;;;22.40;45.70;;;;;;4993466;28;20810;-76
2023/04/07 00:11:05;;;;;;;1.53;1.43;;;22.40;45.70;;;;;;5011247;28;20439;-76
2023/04/07 00:13:33;;;;;;;1.67;1.57;;;22.40;45.70;;;;;;5010200;28;20483;-76
2023/04/07 00:16:01;;;;;;;1.50;1.40;;;22.40;45.70;;;;;;5024426;28;20569;-77
2023/04/07 00:18:30;;;;;;;1.43;1.33;;;22.30;45.80;;;;;;5031078;28;20454;-76
2023/04/07 00:20:59;;;;;;;1.63;1.53;;;22.30;45.80;;;;;;5030693;28;20464;-76
2023/04/07 00:23:27;;;;;;;1.93;1.83;;;22.30;45.80;;;;;;5033256;28;20465;-76
2023/04/07 00:25:55;;;;;;;1.60;1.50;;;22.30;45.80;;;;;;5029972;28;20991;-77
2023/04/07 00:28:23;;;;;;;1.97;1.87;;;22.30;45.80;;;;;;5014370;28;20443;-79
2023/04/07 00:30:51;;;;;;;1.60;1.50;;;22.30;45.90;;;;;;5014807;28;20502;-79
2023/04/07 00:33:20;;;;;;;1.40;1.30;;;22.30;45.90;;;;;;4997510;28;20531;-75
2023/04/07 00:35:50;;;;;;;1.43;1.43;;;22.30;45.90;;;;;;4997192;28;20573;-75
2023/04/07 00:38:18;;;;;;;1.63;1.53;;;22.30;45.90;;;;;;5014784;28;20479;-76
2023/04/07 00:40:46;;;;;;;1.53;1.43;;;22.30;46.00;;;;;;4997988;28;20440;-76
2023/04/07 00:43:14;;;;;;;2.10;1.37;;;22.30;46.00;;;;;;5020242;28;20938;-77
2023/04/07 00:45:42;;;;;;;1.60;1.50;;;22.30;46.00;;;;;;5033306;28;20502;-76
2023/04/07 00:48:11;;;;;;;2.00;1.90;;;22.30;46.00;;;;;;5034737;28;20435;-77
2023/04/07 00:50:39;;;;;;;1.37;1.33;;;22.30;46.00;;;;;;5002397;28;20573;-76
2023/04/07 00:53:09;;;;;;;1.70;1.60;;;22.30;46.00;;;;;;4997950;28;20483;-77
2023/04/07 00:55:37;;;;;;;1.10;1.10;;;22.30;46.00;;;;;;5009851;28;20443;-76
2023/04/07 00:58:05;;;;;;;1.60;1.50;;;22.30;46.10;;;;;;4996674;28;20515;-76
2023/04/07 01:00:38;;;;;;;1.27;1.27;;;22.30;46.00;;;;;;5029508;28;20921;-76
2023/04/07 01:03:13;;;;;;;1.53;1.43;;;22.30;46.10;;;;;;5014634;28;20516;-76
2023/04/07 01:05:50;;;;;;;1.63;1.53;;;22.30;46.10;;;;;;5016610;28;20546;-76
2023/04/07 01:08:24;;;;;;;1.13;1.13;;;22.30;46.10;;;;;;5016880;28;20507;-76
2023/04/07 01:10:56;;;;;;;1.73;1.63;;;22.20;46.10;;;;;;5034023;28;20482;-77
2023/04/07 01:13:31;;;;;;;1.30;1.20;;;22.30;46.20;;;;;;5015162;28;21285;-78
2023/04/07 01:16:12;;;;;;;1.30;1.20;;;22.20;46.20;;;;;;5007069;28;20467;-78
2023/04/07 01:18:50;;;;;;;1.30;1.20;;;22.30;46.20;;;;;;5013057;28;20828;-77
2023/04/07 01:21:20;;;;;;;1.40;1.30;;;22.20;46.20;;;;;;5034077;28;20449;-76
2023/04/07 01:24:16;;;;;;;1.37;1.27;;;22.30;46.20;;;;;;5033929;28;20441;-78
2023/04/07 01:26:47;;;;;;;1.47;1.37;;;22.20;46.20;;;;;;5016242;28;20502;-76
2023/04/07 01:29:27;;;;;;;1.07;1.07;;;22.20;46.20;;;;;;5029043;28;20440;-76
2023/04/07 01:31:58;;;;;;;1.63;1.53;;;22.20;46.20;;;;;;4997996;28;20803;-75
2023/04/07 01:34:29;;;;;;;1.53;1.43;;;22.20;46.30;;;;;;5028348;28;20482;-76
2023/04/07 01:36:59;;;;;;;1.53;1.40;;;22.20;46.30;;;;;;5033527;28;20447;-76
2023/04/07 01:39:28;;;;;;;1.60;1.50;;;22.20;46.30;;;;;;5032967;28;20431;-76
2023/04/07 01:41:57;;;;;;;1.50;1.40;;;22.20;46.30;;;;;;5033649;28;20994;-77
2023/04/07 01:44:28;;;;;;;1.40;1.37;;;22.20;46.30;;;;;;5031276;28;20919;-76
2023/04/07 01:46:57;;;;;;;1.93;1.30;;;22.20;46.40;;;;;;5033641;28;20435;-76
2023/04/07 01:49:26;;;;;;;1.20;1.10;;;22.20;46.30;;;;;;5033028;28;20447;-78
2023/04/07 01:51:55;;;;;;;1.40;1.30;;;22.20;46.40;;;;;;5033419;28;20486;-76
2023/04/07 01:54:24;;;;;;;1.50;1.40;;;22.20;46.40;;;;;;5000033;28;20483;-79
2023/04/07 01:56:53;;;;;;;1.50;1.40;;;22.20;46.40;;;;;;4995649;28;20511;-75
2023/04/07 01:59:21;;;;;;;1.10;1.10;;;22.20;46.40;;;;;;4994764;28;20459;-76
2023/04/07 02:01:51;;;;;;;1.20;1.20;;;22.20;46.40;;;;;;5015532;28;20482;-76
2023/04/07 02:04:25;;;;;;;1.50;1.40;;;22.20;46.40;;;;;;5015129;28;20510;-76
2023/04/07 02:06:59;;;;;;;2.10;1.20;;;22.20;46.50;;;;;;5032793;28;20781;-77
2023/04/07 02:09:38;;;;;;;2.07;1.87;;;22.20;46.50;;;;;;5015333;28;20454;-80
2023/04/07 02:12:09;;;;;;;1.50;1.40;;;22.20;46.50;;;;;;5014984;28;20454;-76
2023/04/07 02:14:42;;;;;;;1.13;1.13;;;22.20;46.50;;;;;;5013066;28;20525;-76
2023/04/07 02:17:16;;;;;;;1.20;1.10;;;22.20;46.50;;;;;;5014886;28;20857;-76
2023/04/07 02:19:46;;;;;;;1.30;1.20;;;22.20;46.50;;;;;;5014729;28;20448;-76
2023/04/07 02:22:16;;;;;;;1.53;1.40;;;22.20;46.50;;;;;;5015107;28;20455;-76
2023/04/07 02:24:44;;;;;;;1.40;1.20;;;22.20;46.50;;;;;;5015119;28;20455;-76
2023/04/07 02:27:12;;;;;;;1.10;1.10;;;22.20;46.50;;;;;;5014860;28;20469;-79
2023/04/07 02:29:41;;;;;;;1.47;1.40;;;22.20;46.50;;;;;;5031483;28;20463;-76
2023/04/07 02:32:09;;;;;;;1.40;1.30;;;22.20;46.60;;;;;;5033004;28;20561;-76
2023/04/07 02:34:39;;;;;;;1.20;1.20;;;22.20;46.60;;;;;;5031227;28;20478;-76
2023/04/07 02:37:07;;;;;;;1.37;1.27;;;22.20;46.60;;;;;;5014767;28;20457;-77
2023/04/07 02:39:35;;;;;;;1.27;1.17;;;22.20;46.60;;;;;;5032463;28;20461;-76
2023/04/07 02:42:04;;;;;;;1.20;1.10;;;22.20;46.60;;;;;;5032447;28;20447;-79
2023/04/07 02:44:32;;;;;;;1.27;1.27;;;22.20;46.60;;;;;;5012220;28;20473;-77
2023/04/07 02:47:00;;;;;;;1.30;1.20;;;22.20;46.60;;;;;;5032344;28;20532;-76
2023/04/07 02:49:28;;;;;;;1.30;1.20;;;22.20;46.60;;;;;;5031799;28;20989;-76
2023/04/07 02:51:57;;;;;;;1.07;1.07;;;22.20;46.60;;;;;;5032528;28;20573;-76
2023/04/07 02:54:25;;;;;;;1.30;1.30;;;22.20;46.60;;;;;;5013281;28;20483;-76
2023/04/07 02:56:55;;;;;;;0.97;0.97;;;22.20;46.70;;;;;;5012644;28;20458;-77
2023/04/07 02:59:24;;;;;;;1.67;1.57;;;22.20;46.70;;;;;;5010793;28;20913;-76
2023/04/07 03:01:54;;;;;;;1.10;1.10;;;22.20;46.70;;;;;;5030131;28;21121;-77
2023/04/07 03:04:23;;;;;;;1.37;1.10;;;22.20;46.70;;;;;;5013864;28;20484;-77
2023/04/07 03:06:51;;;;;;;1.17;1.17;;;22.20;46.70;;;;;;5041008;28;20484;-76
2023/04/07 03:09:21;;;;;;;1.57;1.20;;;22.20;46.70;;;;;;5012624;28;20470;-77
2023/04/07 03:11:50;;;;;;;1.30;1.20;;;22.20;46.70;;;;;;5013232;28;20454;-76
2023/04/07 03:14:19;;;;;;;1.30;1.20;;;22.20;46.70;;;;;;5031140;28;20589;-76
2023/04/07 03:16:49;;;;;;;1.60;1.50;;;22.20;46.70;;;;;;5014229;28;20473;-76
2023/04/07 03:19:18;;;;;;;1.30;1.20;;;22.20;46.70;;;;;;5007992;28;20463;-77
2023/04/07 03:21:49;;;;;;;1.10;1.00;;;22.20;46.70;;;;;;5011367;28;20454;-78
2023/04/07 03:24:17;;;;;;;1.10;1.10;;;22.20;46.70;;;;;;5013325;28;20500;-76
2023/04/07 03:26:48;;;;;;;1.23;1.20;;;22.20;46.70;;;;;;5014109;28;20450;-77
2023/04/07 03:29:28;;;;;;;1.43;1.33;;;22.20;46.80;;;;;;5013393;28;20480;-76
2023/04/07 03:31:56;;;;;;;1.40;1.30;;;22.20;46.80;;;;;;5031563;28;20505;-76
2023/04/07 03:34:25;;;;;;;1.27;1.17;;;22.20;46.80;;;;;;5011463;28;20663;-77
2023/04/07 03:36:53;;;;;;;1.83;1.20;;;22.20;46.80;;;;;;5023487;28;20467;-82
2023/04/07 03:39:21;;;;;;;1.00;1.00;;;22.10;46.80;;;;;;5030578;28;20478;-77
2023/04/07 03:41:55;;;;;;;1.10;1.10;;;22.10;46.80;;;;;;5013537;28;20465;-79
2023/04/07 03:44:23;;;;;;;1.00;1.00;;;22.10;46.80;;;;;;5012945;28;20549;-76
2023/04/07 03:46:52;;;;;;;2.00;1.33;;;22.10;46.80;;;;;;5031311;28;20466;-77
2023/04/07 03:49:23;;;;;;;1.10;1.10;;;22.10;46.80;;;;;;5013665;28;20470;-77
2023/04/07 03:51:52;;;;;;;1.37;1.30;;;22.10;46.80;;;;;;5013464;28;20494;-77
2023/04/07 03:54:20;;;;;;;1.30;1.20;;;22.10;46.80;;;;;;5012767;28;20496;-76
2023/04/07 03:56:49;;;;;;;0.90;0.90;;;22.10;46.90;;;;;;5013783;28;20506;-76
2023/04/07 03:59:23;;;;;;;1.20;1.20;;;22.10;46.80;;;;;;5012348;28;20815;-77
2023/04/07 04:01:57;;;;;;;0.93;0.90;;;22.10;46.90;;;;;;5013270;28;20502;-76
2023/04/07 04:04:26;;;;;;;1.00;1.00;;;22.10;46.90;;;;;;5012593;28;20458;-79
2023/04/07 04:06:55;;;;;;;1.10;1.10;;;22.10;46.90;;;;;;5010636;28;21327;-76
2023/04/07 04:09:38;;;;;;;1.13;1.13;;;22.10;46.90;;;;;;4993305;28;20951;-76
2023/04/07 04:12:07;;;;;;;1.20;1.10;;;22.10;46.90;;;;;;4994295;28;20638;-76
2023/04/07 04:14:44;;;;;;;1.20;1.10;;;22.10;46.90;;;;;;5004217;28;20477;-76
2023/04/07 04:17:14;;;;;;;0.93;0.93;;;22.10;46.90;;;;;;5013069;28;20527;-76
2023/04/07 04:19:46;;;;;;;1.23;1.23;;;22.10;46.90;;;;;;5013050;28;20824;-76
2023/04/07 04:22:22;;;;;;;1.30;1.20;;;22.10;46.90;;;;;;5013511;28;20473;-80
2023/04/07 04:24:54;;;;;;;0.90;0.90;;;22.10;46.90;;;;;;5012759;28;20456;-79
2023/04/07 04:27:24;;;;;;;1.00;1.00;;;22.10;47.00;;;;;;5013427;28;20983;-77
2023/04/07 04:30:00;;;;;;;1.30;1.30;;;22.10;46.90;;;;;;5012518;28;20456;-76
2023/04/07 04:32:35;;;;;;;1.00;1.00;;;22.10;47.00;;;;;;5012058;28;20541;-76
2023/04/07 04:35:06;;;;;;;1.17;1.07;;;22.10;47.00;;;;;;5012345;28;20490;-76
2023/04/07 04:37:40;;;;;;;1.20;1.20;;;22.10;47.00;;;;;;5013388;28;21306;-77
2023/04/07 04:40:12;;;;;;;0.83;0.83;;;22.10;47.00;;;;;;5030466;28;20442;-76
2023/04/07 04:42:41;;;;;;;0.90;0.90;;;22.10;47.00;;;;;;5013285;28;20459;-76
2023/04/07 04:45:12;;;;;;;1.30;1.20;;;22.10;47.00;;;;;;5008533;28;20467;-76
2023/04/07 04:47:45;;;;;;;1.00;1.00;;;22.10;47.00;;;;;;5001504;28;20463;-78
2023/04/07 04:50:14;;;;;;;1.10;1.10;;;22.10;47.00;;;;;;4993454;28;20779;-81
2023/04/07 04:52:44;;;;;;;1.40;1.10;;;22.10;47.00;;;;;;4994583;28;20503;-79
2023/04/07 04:55:19;;;;;;;1.13;1.13;;;22.10;47.00;;;;;;5012503;28;20883;-76
2023/04/07 04:57:48;;;;;;;1.57;1.47;;;22.10;47.00;;;;;;5012544;28;20460;-76
2023/04/07 05:00:23;;;;;;;1.50;1.40;;;22.10;47.00;;;;;;5009553;28;20979;-79
2023/04/07 05:02:57;;;;;;;1.60;1.10;;;22.10;47.00;;;;;;5011331;28;20470;-76
2023/04/07 05:05:26;;;;;;;1.00;1.00;;;22.10;47.10;;;;;;5011494;28;20982;-76
2023/04/07 05:07:56;;;;;;;1.10;1.10;;;22.10;47.10;;;;;;4998757;28;20530;-76
2023/04/07 05:10:28;;;;;;;1.20;1.10;;;22.10;47.10;;;;;;5001325;28;20503;-76
2023/04/07 05:12:56;;;;;;;1.00;1.00;;;22.10;47.10;;;;;;5034451;28;20561;-76
2023/04/07 05:15:26;;;;;;;0.80;0.80;;;22.10;47.10;;;;;;5015273;28;20483;-78
2023/04/07 05:17:55;;;;;;;1.10;1.10;;;22.10;47.10;;;;;;5016049;28;20832;-76
2023/04/07 05:20:27;;;;;;;1.17;1.07;;;22.10;47.10;;;;;;5016623;28;20463;-76
2023/04/07 05:22:55;;;;;;;1.40;1.13;;;22.10;47.10;;;;;;5032673;28;20439;-76
2023/04/07 05:25:31;;;;;;;1.00;1.00;;;22.10;47.10;;;;;;5015804;28;21014;-76
2023/04/07 05:28:03;;;;;;;1.23;1.20;;;22.10;47.10;;;;;;5005450;28;20553;-76
2023/04/07 05:30:33;;;;;;;1.97;1.00;;;22.10;47.10;;;;;;5014520;28;20951;-76
2023/04/07 05:33:01;;;;;;;1.00;1.00;;;22.10;47.20;;;;;;5016104;28;20780;-77
2023/04/07 05:35:44;;;;;;;1.10;0.80;;;22.10;47.20;;;;;;5016025;28;20479;-79
2023/04/07 05:38:15;;;;;;;1.23;1.13;;;22.10;47.20;;;;;;5015903;28;20982;-76
2023/04/07 05:40:43;;;;;;;0.90;0.90;;;22.10;47.20;;;;;;5015636;28;20455;-79
2023/04/07 05:43:18;;;;;;;1.37;1.27;;;22.10;47.10;;;;;;5031235;28;20462;-76
2023/04/07 05:45:47;;;;;;;1.27;1.17;;;22.10;47.20;;;;;;5015207;28;20458;-76
2023/04/07 05:48:15;;;;;;;1.30;1.20;;;22.10;47.20;;;;;;5015394;28;20548;-76
2023/04/07 05:50:46;;;;;;;1.30;1.20;;;22.10;47.20;;;;;;5015877;28;20459;-76
2023/04/07 05:53:17;;;;;;;1.20;1.20;;;22.10;47.20;;;;;;5014703;28;20860;-76
2023/04/07 05:55:46;;;;;;;0.90;0.90;;;22.10;47.20;;;;;;5015170;28;20484;-75
2023/04/07 05:58:35;;;;;;;1.00;0.93;;;22.10;47.20;;;;;;5030475;28;20519;-76
2023/04/07 06:01:05;;;;;;;1.23;1.20;;;22.10;47.20;;;;;;5015368;28;20463;-76
2023/04/07 06:03:33;;;;;;;1.20;1.10;;;22.10;47.20;;;;;;5005050;28;20500;-76
2023/04/07 06:06:11;;;;;;;1.20;1.20;;;22.10;47.20;;;;;;4996172;28;20459;-75
2023/04/07 06:08:39;;;;;;;1.03;1.03;;;22.10;47.20;;;;;;4998864;28;20462;-76
2023/04/07 06:11:07;;;;;;;1.47;1.37;;;22.10;47.20;;;;;;5004194;28;20467;-76
2023/04/07 06:13:35;;;;;;;1.57;1.47;;;22.10;47.20;;;;;;5021566;28;20560;-75
2023/04/07 06:16:05;;;;;;;1.20;1.10;;;22.10;47.20;;;;;;5013125;28;20566;-79
2023/04/07 06:18:33;;;;;;;0.80;0.80;;;22.10;47.20;;;;;;4995187;28;20511;-77
2023/04/07 06:21:01;;;;;;;1.00;1.00;;;22.10;47.20;;;;;;5012193;28;20454;-75
2023/04/07 06:23:30;;;;;;;1.10;1.10;;;22.10;47.20;;;;;;5022327;28;20442;-75
2023/04/07 06:25:58;;;;;;;1.23;1.17;;;22.10;47.20;;;;;;5032265;28;20467;-76
2023/04/07 06:28:26;;;;;;;1.20;1.10;;;22.10;47.20;;;;;;5030867;28;20458;-79
2023/04/07 06:30:55;;;;;;;1.23;1.10;;;22.10;47.20;;;;;;5014685;28;20462;-77
2023/04/07 06:33:27;;;;;;;1.20;1.20;;;22.10;47.20;;;;;;5031965;28;21012;-76
2023/04/07 06:35:57;;;;;;;1.00;1.00;;;22.10;47.20;;;;;;5015062;28;20483;-77
2023/04/07 06:38:25;;;;;;;1.00;1.00;;;22.10;47.20;;;;;;5032428;28;20469;-76
2023/04/07 06:40:53;;;;;;;1.47;0.90;;;22.10;47.20;;;;;;5032481;28;20453;-76
2023/04/07 06:43:22;;;;;;;1.13;1.03;;;22.10;47.20;;;;;;5021885;28;20503;-79
2023/04/07 06:46:01;;;;;;;1.00;1.00;;;22.10;47.20;;;;;;5012618;28;20539;-78
2023/04/07 06:48:31;;;;;;;2.30;1.30;;;22.10;47.20;;;;;;5012059;28;20931;-76
2023/04/07 06:50:59;;;;;;;1.10;1.10;;;22.10;47.20;;;;;;5012721;28;20907;-76
2023/04/07 06:53:27;;;;;;;1.30;1.13;;;22.10;47.20;;;;;;5020764;28;20554;-76
2023/04/07 06:56:03;;;;;;;1.43;1.33;;;22.10;47.20;;;;;;5032021;28;20475;-76
2023/04/07 06:58:31;;;;;;;1.37;1.27;;;22.10;47.20;;;;;;5030495;28;20470;-75
2023/04/07 07:01:00;;;;;;;0.90;0.90;;;22.20;47.20;;;;;;5026081;28;20467;-76
2023/04/07 07:03:28;;;;;;;1.30;1.20;;;22.20;47.20;;;;;;5030385;28;20471;-76
2023/04/07 07:05:58;;;;;;;1.10;1.10;;;22.20;47.20;;;;;;5022134;28;20440;-75
2023/04/07 07:08:27;;;;;;;1.23;1.13;;;22.20;47.20;;;;;;5014125;28;20447;-76
2023/04/07 07:10:56;;;;;;;1.40;1.30;;;22.20;47.20;;;;;;5012452;28;20442;-76
2023/04/07 07:13:26;;;;;;;1.13;1.03;;;22.20;47.20;;;;;;5019030;28;20483;-79
2023/04/07 07:15:54;;;;;;;1.27;1.20;;;22.20;47.20;;;;;;5031708;28;20498;-78
2023/04/07 07:18:24;;;;;;;0.90;0.90;;;22.20;47.20;;;;;;5031518;28;20432;-78
2023/04/07 07:20:52;;;;;;;0.90;0.90;;;22.20;47.10;;;;;;5014017;28;20673;-78
2023/04/07 07:23:22;;;;;;;1.00;1.00;;;22.20;47.10;;;;;;5025737;28;20468;-76
2023/04/07 07:25:50;;;;;;;1.60;1.50;;;22.30;47.10;;;;;;5019899;28;20963;-79
2023/04/07 07:28:20;;;;;;;1.00;1.00;;;22.30;47.10;;;;;;5019713;28;20477;-77
2023/04/07 07:30:48;;;;;;;0.97;0.97;;;22.30;47.10;;;;;;5030157;28;20463;-82
2023/04/07 07:33:16;;;;;;;1.10;1.00;;;22.30;47.10;;;;;;5030885;28;20467;-78
2023/04/07 07:35:45;;;;;;;1.37;1.27;;;22.30;47.10;;;;;;5030005;28;20455;-76
2023/04/07 07:38:13;;;;;;;1.07;1.07;;;22.30;47.10;;;;;;5017812;28;20492;-76
2023/04/07 07:40:42;;;;;;;0.90;0.90;;;22.30;47.10;;;;;;5029734;28;20894;-76
2023/04/07 07:43:11;;;;;;;1.27;1.00;;;22.30;47.10;;;;;;5021845;28;20490;-78
2023/04/07 07:45:39;;;;;;;1.60;1.50;;;22.40;47.10;;;;;;5029663;28;21225;-76
2023/04/07 07:48:07;;;;;;;1.10;1.10;;;22.40;47.00;;;;;;5030899;28;20493;-76
2023/04/07 07:50:36;;;;;;;1.47;1.37;;;22.30;47.00;;;;;;5030632;28;20463;-77
2023/04/07 07:53:04;;;;;;;1.60;1.30;;;22.40;47.00;;;;;;5031086;28;20479;-78
2023/04/07 07:55:32;;;;;;;1.63;1.53;;;22.40;47.00;;;;;;5029337;28;20454;-76
2023/04/07 07:58:01;;;;;;;1.30;1.20;;;22.40;47.00;;;;;;5029942;28;20990;-76
2023/04/07 08:00:30;;;;;;;1.00;1.00;;;22.40;47.00;;;;;;5029764;28;20475;-79
2023/04/07 08:02:58;;;;;;;1.43;1.33;;;22.40;47.10;;;;;;5029614;28;20474;-77
2023/04/07 08:05:27;;;;;;;1.30;1.20;;;22.40;47.00;;;;;;5030228;28;20513;-76
2023/04/07 08:07:55;;;;;;;1.10;1.10;;;22.40;47.00;;;;;;5030835;28;20447;-78
2023/04/07 08:10:24;;;;;;;1.40;1.30;;;22.40;47.00;;;;;;5030275;28;20481;-76
2023/04/07 08:12:52;;;;;;;1.20;1.20;;;22.40;47.00;;;;;;5027609;28;20546;-81
2023/04/07 08:15:22;;;;;;;1.30;1.20;;;22.50;47.00;;;;;;5028047;28;20464;-76
2023/04/07 08:17:50;;;;;;;1.53;1.43;;;22.50;47.00;;;;;;5024453;28;20527;-76
2023/04/07 08:20:21;;;;;;;0.90;0.90;;;22.50;47.00;;;;;;5029908;28;20920;-76
2023/04/07 08:22:49;;;;;;;1.07;1.07;;;22.50;47.00;;;;;;5029842;28;20431;-77
2023/04/07 08:25:18;;;;;;;1.30;1.30;;;22.50;46.90;;;;;;5030636;28;20486;-78
2023/04/07 08:27:46;;;;;;;1.77;1.57;;;22.50;47.00;;;;;;5030562;28;20462;-76
2023/04/07 08:30:15;;;;;;;1.47;1.37;;;22.50;46.90;;;;;;5030183;28;20436;-76
2023/04/07 08:32:45;;;;;;;1.50;1.40;;;22.50;46.90;;;;;;5030815;28;20447;-79
2023/04/07 08:35:13;;;;;;;1.17;1.07;;;22.50;46.90;;;;;;5030740;28;20428;-77
2023/04/07 08:37:43;;;;;;;1.27;1.17;;;22.50;46.90;;;;;;5013154;28;20475;-75
2023/04/07 08:40:12;;;;;;;1.43;1.37;;;22.60;46.90;;;;;;5010789;28;20464;-76
2023/04/07 08:42:42;;;;;;;2.50;1.07;;;22.60;46.90;;;;;;5017032;28;20460;-76
2023/04/07 08:45:12;;;;;;;1.20;1.17;;;22.60;46.90;;;;;;5013469;28;20838;-76
2023/04/07 08:47:41;;;;;;;1.20;1.20;;;22.60;46.90;;;;;;5014747;28;20487;-76
2023/04/07 08:50:12;;;;;;;1.13;1.13;;;22.60;46.70;;;;;;5015146;28;20541;-76
2023/04/07 08:52:46;;;;;;;1.33;1.30;;;22.60;46.70;;;;;;5015688;28;20483;-76
2023/04/07 08:55:15;;;;;;;1.43;1.33;;;22.60;46.70;;;;;;5033886;28;20451;-76
2023/04/07 08:57:43;;;;;;;1.50;1.40;;;22.70;46.70;;;;;;5032768;28;20481;-75
2023/04/07 09:00:13;;;;;;;1.30;1.20;;;22.70;46.70;;;;;;5033403;28;20440;-76
2023/04/07 09:02:44;;;;;;;1.60;1.50;;;22.70;46.70;;;;;;5033152;28;20436;-82
2023/04/07 09:05:14;;;;;;;1.17;1.00;;;22.70;46.70;;;;;;5031978;28;20440;-76
2023/04/07 09:07:43;;;;;;;1.20;1.20;;;22.70;46.70;;;;;;5034197;28;20569;-76
2023/04/07 09:10:11;;;;;;;1.63;1.53;;;22.70;46.70;;;;;;5034046;28;21000;-75
2023/04/07 09:12:40;;;;;;;1.13;1.10;;;22.70;46.70;;;;;;5033288;28;20491;-77
2023/04/07 09:15:09;;;;;;;1.17;1.17;;;22.70;46.70;;;;;;5013241;28;20462;-77
2023/04/07 09:17:37;;;;;;;1.60;1.50;;;22.70;46.70;;;;;;5014102;28;20468;-76
2023/04/07 09:20:06;;;;;;;1.27;1.17;;;22.70;46.70;;;;;;5014299;28;20440;-76
2023/04/07 09:22:41;;;;;;;1.10;1.10;;;22.70;46.70;;;;;;5014120;28;20492;-76
2023/04/07 09:25:11;;;;;;;1.10;1.10;;;22.70;46.70;;;;;;5028681;28;20455;-76
2023/04/07 09:27:40;;;;;;;1.40;1.23;;;22.70;46.70;;;;;;5033458;28;20435;-76
2023/04/07 09:30:13;;;;;;;1.00;1.00;;;22.70;46.70;;;;;;5032772;28;20450;-76
2023/04/07 09:32:42;;;;;;;1.40;1.30;;;22.70;46.70;;;;;;5033746;28;20430;-76
2023/04/07 09:35:10;;;;;;;1.40;1.30;;;22.70;46.70;;;;;;5033481;28;20530;-76
2023/04/07 09:37:41;;;;;;;1.30;1.20;;;22.70;46.70;;;;;;5033319;28;20559;-76
2023/04/07 09:40:10;;;;;;;1.40;1.30;;;22.70;46.70;;;;;;5032700;28;20826;-77
2023/04/07 09:42:47;;;;;;;0.93;0.93;;;22.70;46.70;;;;;;5029479;28;20447;-76
2023/04/07 09:45:25;;;;;;;1.63;1.50;;;22.80;46.70;;;;;;5012808;28;20433;-76
2023/04/07 09:48:05;;;;;;;1.40;1.27;;;22.80;46.70;;;;;;5013969;28;20433;-76
2023/04/07 09:50:35;;;;;;;1.00;1.00;;;22.80;46.70;;;;;;5030066;28;20854;-79
2023/04/07 09:53:05;;;;;;;0.80;0.80;;;22.80;46.70;;;;;;5033076;28;20501;-76
2023/04/07 09:55:33;;;;;;;1.10;1.10;;;22.80;46.70;;;;;;5033435;28;20523;-76
2023/04/07 09:58:05;;;;;;;1.50;1.40;;;22.80;46.70;;;;;;5015230;28;20475;-76
2023/04/07 10:00:33;;;;;;;1.63;1.47;;;22.80;46.60;;;;;;5032467;28;20522;-76
2023/04/07 10:03:02;;;;;;;1.53;1.50;;;22.90;46.60;;;;;;5030654;28;20527;-82
2023/04/07 10:05:32;;;;;;;1.20;1.20;;;22.90;46.60;;;;;;5013605;28;20520;-76
2023/04/07 10:08:02;;;;;;;1.07;1.07;;;22.90;46.60;;;;;;5012926;28;20524;-76
2023/04/07 10:10:32;;;;;;;1.17;1.17;;;22.90;46.60;;;;;;5028435;28;20450;-76
2023/04/07 10:13:01;;;;;;;1.50;1.40;;;22.90;46.70;;;;;;5030794;28;20437;-76
2023/04/07 10:15:30;;;;;;;1.33;1.23;;;22.90;46.60;;;;;;5012236;28;20517;-80
2023/04/07 10:18:00;;;;;;;1.30;1.30;;;22.90;46.60;;;;;;5013507;28;20509;-77
2023/04/07 10:20:29;;;;;;;1.33;1.23;;;22.90;46.60;;;;;;5012581;28;20943;-77
2023/04/07 10:23:09;;;;;;;1.33;1.30;;;22.90;46.60;;;;;;5025297;28;20879;-76
2023/04/07 10:25:40;;;;;;;1.23;1.13;;;22.90;46.60;;;;;;5032204;28;20454;-78
2023/04/07 10:28:10;;;;;;;1.20;1.10;;;23.00;46.60;;;;;;5032330;28;20430;-78
2023/04/07 10:30:40;;;;;;;1.47;1.37;;;23.00;46.60;;;;;;5032232;28;20443;-77
2023/04/07 10:33:08;;;;;;;1.27;1.20;;;23.00;46.60;;;;;;5032771;28;20491;-76
2023/04/07 10:36:02;;;;;;;1.43;1.30;;;23.00;46.60;;;;;;5032455;28;20436;-76
2023/04/07 10:38:31;;;;;;;1.23;1.17;;;23.00;46.60;;;;;;5032179;28;20952;-76
2023/04/07 10:41:21;;;;;;;1.60;1.50;;;23.00;46.60;;;;;;5031344;28;20496;-76
2023/04/07 10:43:49;;;;;;;1.70;1.60;;;23.10;46.50;;;;;;5022135;28;20461;-76
2023/04/07 10:46:17;;;;;;;1.60;1.50;;;23.10;46.50;;;;;;5014769;28;20525;-76
2023/04/07 10:49:08;;;;;;;1.80;1.60;;;23.10;46.50;;;;;;5032000;28;20463;-76
2023/04/07 10:51:36;;;;;;;1.30;1.30;;;23.10;46.50;;;;;;5032009;28;20535;-82
2023/04/07 10:54:25;;;;;;;1.20;1.20;;;23.10;46.40;;;;;;5029374;28;20449;-80
2023/04/07 10:57:23;;;;;;;1.17;1.17;;;23.20;46.40;;;;;;5032469;28;20523;-77
2023/04/07 11:00:16;;;;;;;1.03;1.03;;;23.20;46.40;;;;;;5017737;28;20438;-78
2023/04/07 11:02:44;;;;;;;1.77;1.67;;;23.20;46.40;;;;;;5012440;28;20422;-76
2023/04/07 11:05:22;;;;;;;1.43;1.33;;;23.20;46.40;;;;;;5031356;28;20461;-76
2023/04/07 11:08:01;;;;;;;1.40;1.30;;;23.20;46.30;;;;;;5028504;28;20527;-77
2023/04/07 11:10:29;;;;;;;1.53;1.43;;;23.30;46.30;;;;;;5031061;28;20455;-76
2023/04/07 11:13:06;;;;;;;1.20;1.07;;;23.30;46.30;;;;;;5030322;28;20628;-76
2023/04/07 11:15:38;;;;;;;1.40;1.30;;;23.30;46.30;;;;;;5011421;28;20488;-77
2023/04/07 11:18:18;;;;;;;1.37;1.27;;;23.30;46.30;;;;;;5012355;28;20493;-78
2023/04/07 11:20:49;;;;;;;1.70;1.60;;;23.30;46.30;;;;;;5011905;28;20433;-77
2023/04/07 11:23:18;;;;;;;1.47;1.17;;;23.30;46.30;;;;;;5014764;28;20475;-76
2023/04/07 11:25:50;;;;;;;1.20;1.20;;;23.30;46.30;;;;;;5031926;28;20434;-76
2023/04/07 11:28:20;;;;;;;1.63;1.53;;;23.30;46.30;;;;;;5030694;28;20456;-76
2023/04/07 11:30:50;;;;;;;1.23;1.23;;;23.40;46.20;;;;;;5030963;28;20515;-76
2023/04/07 11:33:20;;;;;;;1.30;1.30;;;23.40;46.20;;;;;;5031465;28;20449;-82
2023/04/07 11:35:50;;;;;;;1.30;1.30;;;23.50;46.10;;;;;;5031254;28;20861;-76
2023/04/07 11:38:19;;;;;;;1.13;1.10;;;23.50;46.10;;;;;;5031046;28;20465;-76
2023/04/07 11:40:48;;;;;;;1.57;1.47;;;23.50;46.10;;;;;;5030782;28;20453;-76
2023/04/07 11:43:18;;;;;;;1.13;1.03;;;23.70;46.10;;;;;;5030842;28;20761;-76
2023/04/07 11:46:03;;;;;;;1.53;1.43;;;23.80;45.70;;;;;;5031143;28;20428;-76
2023/04/07 11:48:32;;;;;;;1.40;1.30;;;23.90;45.40;;;;;;5020792;28;20458;-76
2023/04/07 11:51:01;;;;;;;1.10;1.10;;;24.00;45.30;;;;;;4994223;28;20812;-78
2023/04/07 11:53:30;;;;;;;1.37;1.27;;;24.00;45.30;;;;;;5017120;28;20477;-78
2023/04/07 11:56:03;;;;;;;1.50;1.40;;;23.90;45.30;;;;;;5026663;28;20476;-76
2023/04/07 11:58:32;;;;;;;1.40;1.30;;;23.90;45.40;;;;;;5030128;28;20471;-76
2023/04/07 12:01:05;;;;;;;1.50;1.40;;;23.90;45.50;;;;;;5030843;28;20452;-79
2023/04/07 12:03:35;;;;;;;1.23;1.20;;;23.80;45.40;;;;;;5031324;28;20938;-79
2023/04/07 12:06:05;;;;;;;1.50;1.40;;;23.80;45.50;;;;;;5030704;28;20445;-81
2023/04/07 12:08:41;;;;;;;1.30;1.20;;;23.80;45.70;;;;;;5030550;28;20435;-76
2023/04/07 12:11:11;;;;;;;1.10;1.10;;;23.90;45.70;;;;;;5029858;28;20459;-79
2023/04/07 12:13:40;;;;;;;1.20;1.20;;;23.90;45.40;;;;;;5010265;28;20470;-76
2023/04/07 12:16:09;;;;;;;1.23;1.23;;;23.90;45.40;;;;;;5010945;28;20915;-77
2023/04/07 12:18:37;;;;;;;1.10;1.10;;;23.80;45.50;;;;;;4995034;28;20474;-78
2023/04/07 12:21:06;;;;;;;1.40;1.30;;;23.80;45.60;;;;;;5024396;28;20484;-78
2023/04/07 12:23:34;;;;;;;1.20;1.20;;;23.70;45.70;;;;;;5028561;28;20964;-77
2023/04/07 12:26:02;;;;;;;2.80;1.23;;;23.60;45.80;;;;;;5035529;28;20551;-77
2023/04/07 12:28:30;;;;;;;0.80;0.80;;;23.60;45.90;;;;;;5033976;28;20476;-76
2023/04/07 12:30:58;;;;;;;1.37;1.27;;;23.50;46.00;;;;;;5034567;28;20456;-76
2023/04/07 12:33:28;;;;;;;1.67;1.57;;;23.50;46.10;;;;;;5035079;28;20452;-78
2023/04/07 12:35:57;;;;;;;1.23;1.17;;;23.50;46.10;;;;;;5034772;28;20478;-76
2023/04/07 12:38:25;;;;;;;1.40;1.30;;;23.50;46.20;;;;;;5034203;28;20445;-76
2023/04/07 12:40:54;;;;;;;1.57;1.47;;;23.50;46.10;;;;;;5033991;28;20501;-81
2023/04/07 12:43:22;;;;;;;1.13;1.13;;;23.50;46.10;;;;;;5034058;28;20439;-79
2023/04/07 12:45:50;;;;;;;1.60;1.50;;;23.40;46.20;;;;;;5034545;28;20439;-76
2023/04/07 12:48:18;;;;;;;1.50;1.40;;;23.40;46.20;;;;;;5035073;28;20434;-77
2023/04/07 12:50:48;;;;;;;1.60;1.50;;;23.40;46.30;;;;;;5034373;28;20441;-76
2023/04/07 12:53:16;;;;;;;1.20;1.10;;;23.30;46.40;;;;;;5016383;28;20891;-78
2023/04/07 12:55:44;;;;;;;1.20;1.20;;;23.30;46.40;;;;;;5028400;28;20927;-76
2023/04/07 12:58:14;;;;;;;1.27;1.20;;;23.30;46.40;;;;;;5018634;28;20903;-77
2023/04/07 13:00:42;;;;;;;1.90;1.10;;;23.20;46.50;;;;;;5034204;28;20472;-76
2023/04/07 13:03:10;;;;;;;1.40;1.30;;;23.20;46.50;;;;;;5033096;28;20455;-77
2023/04/07 13:05:39;;;;;;;1.50;1.40;;;23.20;46.50;;;;;;5033821;28;20452;-76